sensor_id;sensor_type;location;lat;lon;timestamp;P1;durP1;ratioP1;P2;durP2;ratioP2
16115;SDS011;8162;47.104;15.432;2024-03-07T00:01:56;10.23;;;7.17;;
16115;SDS011;8162;47.104;15.432;2024-03-07T00:04:57;12.53;;;6.87;;
16115;SDS011;8162;47.104;15.432;2024-03-07T00:07:58;8.27;;;6.77;;
16115;SDS011;8162;47.104;15.432;2024-03-07T00:10:59;7.00;;;5.90;;
16115;SDS011;8162;47.104;15.432;2024-03-07T00:14:01;8.27;;;6.90;;
16115;SDS011;8162;47.104;15.432;2024-03-07T00:17:02;12.37;;;7.07;;
16115;SDS011;8162;47.104;15.432;2024-03-07T00:20:03;11.23;;;6.50;;
16115;SDS011;8162;47.104;15.432;2024-03-07T00:23:08;10.73;;;7.17;;
16115;SDS011;8162;47.104;15.432;2024-03-07T00:26:09;10.50;;;7.30;;
16115;SDS011;8162;47.104;15.432;2024-03-07T00:29:11;9.97;;;6.97;;
16115;SDS011;8162;47.104;15.432;2024-03-07T00:32:12;10.17;;;7.27;;
16115;SDS011;8162;47.104;15.432;2024-03-07T00:35:14;10.10;;;7.23;;
16115;SDS011;8162;47.104;15.432;2024-03-07T00:38:14;9.67;;;7.57;;
16115;SDS011;8162;47.104;15.432;2024-03-07T00:41:17;9.87;;;6.93;;
16115;SDS011;8162;47.104;15.432;2024-03-07T00:44:18;9.23;;;8.00;;
16115;SDS011;8162;47.104;15.432;2024-03-07T00:47:19;11.20;;;7.63;;
16115;SDS011;8162;47.104;15.432;2024-03-07T00:50:20;10.37;;;7.87;;
16115;SDS011;8162;47.104;15.432;2024-03-07T00:53:21;10.70;;;7.80;;
16115;SDS011;8162;47.104;15.432;2024-03-07T00:56:22;11.10;;;7.70;;
16115;SDS011;8162;47.104;15.432;2024-03-07T00:59:23;12.73;;;7.63;;
16115;SDS011;8162;47.104;15.432;2024-03-07T01:02:24;9.87;;;7.53;;
16115;SDS011;8162;47.104;15.432;2024-03-07T01:05:25;10.97;;;8.23;;
16115;SDS011;8162;47.104;15.432;2024-03-07T01:08:27;12.53;;;9.20;;
16115;SDS011;8162;47.104;15.432;2024-03-07T01:11:28;10.63;;;7.90;;
16115;SDS011;8162;47.104;15.432;2024-03-07T01:14:29;14.20;;;9.90;;
16115;SDS011;8162;47.104;15.432;2024-03-07T01:17:31;11.03;;;7.53;;
16115;SDS011;8162;47.104;15.432;2024-03-07T01:20:32;12.97;;;8.80;;
16115;SDS011;8162;47.104;15.432;2024-03-07T01:23:34;10.17;;;8.00;;
16115;SDS011;8162;47.104;15.432;2024-03-07T01:26:35;10.83;;;8.23;;
16115;SDS011;8162;47.104;15.432;2024-03-07T01:29:36;10.80;;;8.00;;
16115;SDS011;8162;47.104;15.432;2024-03-07T01:32:37;10.37;;;8.40;;
16115;SDS011;8162;47.104;15.432;2024-03-07T01:35:38;13.43;;;8.77;;
16115;SDS011;8162;47.104;15.432;2024-03-07T01:38:39;13.30;;;8.93;;
16115;SDS011;8162;47.104;15.432;2024-03-07T01:41:40;11.33;;;8.53;;
16115;SDS011;8162;47.104;15.432;2024-03-07T01:44:41;14.20;;;9.60;;
16115;SDS011;8162;47.104;15.432;2024-03-07T01:47:44;13.03;;;9.00;;
16115;SDS011;8162;47.104;15.432;2024-03-07T01:50:45;11.30;;;9.07;;
16115;SDS011;8162;47.104;15.432;2024-03-07T01:53:46;12.13;;;9.30;;
16115;SDS011;8162;47.104;15.432;2024-03-07T01:56:47;12.70;;;9.10;;
16115;SDS011;8162;47.104;15.432;2024-03-07T01:59:48;13.77;;;9.43;;
16115;SDS011;8162;47.104;15.432;2024-03-07T02:02:53;11.53;;;8.87;;
16115;SDS011;8162;47.104;15.432;2024-03-07T02:05:56;15.43;;;9.33;;
16115;SDS011;8162;47.104;15.432;2024-03-07T02:08:57;12.37;;;8.67;;
16115;SDS011;8162;47.104;15.432;2024-03-07T02:11:58;12.10;;;8.53;;
16115;SDS011;8162;47.104;15.432;2024-03-07T02:14:59;12.33;;;8.93;;
16115;SDS011;8162;47.104;15.432;2024-03-07T02:18:00;14.53;;;8.97;;
16115;SDS011;8162;47.104;15.432;2024-03-07T02:21:05;11.70;;;8.27;;
16115;SDS011;8162;47.104;15.432;2024-03-07T02:24:06;12.60;;;8.43;;
16115;SDS011;8162;47.104;15.432;2024-03-07T02:27:08;12.83;;;8.80;;
16115;SDS011;8162;47.104;15.432;2024-03-07T02:30:10;11.77;;;8.47;;
16115;SDS011;8162;47.104;15.432;2024-03-07T02:33:12;14.57;;;8.97;;
16115;SDS011;8162;47.104;15.432;2024-03-07T02:36:13;13.23;;;8.70;;
16115;SDS011;8162;47.104;15.432;2024-03-07T02:39:14;13.17;;;8.73;;
16115;SDS011;8162;47.104;15.432;2024-03-07T02:42:15;11.50;;;8.53;;
16115;SDS011;8162;47.104;15.432;2024-03-07T02:45:16;13.90;;;8.70;;
16115;SDS011;8162;47.104;15.432;2024-03-07T02:48:17;13.43;;;8.47;;
16115;SDS011;8162;47.104;15.432;2024-03-07T02:51:18;11.77;;;8.90;;
16115;SDS011;8162;47.104;15.432;2024-03-07T02:54:19;14.37;;;8.83;;
16115;SDS011;8162;47.104;15.432;2024-03-07T02:57:20;12.87;;;8.60;;
16115;SDS011;8162;47.104;15.432;2024-03-07T03:00:21;14.17;;;8.60;;
16115;SDS011;8162;47.104;15.432;2024-03-07T03:03:29;11.07;;;8.17;;
16115;SDS011;8162;47.104;15.432;2024-03-07T03:06:31;12.50;;;8.20;;
16115;SDS011;8162;47.104;15.432;2024-03-07T03:09:32;9.70;;;7.63;;
16115;SDS011;8162;47.104;15.432;2024-03-07T03:12:33;9.27;;;7.47;;
16115;SDS011;8162;47.104;15.432;2024-03-07T03:15:37;11.83;;;8.50;;
16115;SDS011;8162;47.104;15.432;2024-03-07T03:18:38;10.33;;;7.90;;
16115;SDS011;8162;47.104;15.432;2024-03-07T03:21:39;11.27;;;7.67;;
16115;SDS011;8162;47.104;15.432;2024-03-07T03:24:40;10.60;;;7.13;;
16115;SDS011;8162;47.104;15.432;2024-03-07T03:27:41;11.67;;;8.50;;
16115;SDS011;8162;47.104;15.432;2024-03-07T03:30:42;9.57;;;7.37;;
16115;SDS011;8162;47.104;15.432;2024-03-07T03:33:44;13.87;;;9.07;;
16115;SDS011;8162;47.104;15.432;2024-03-07T03:36:45;12.13;;;8.27;;
16115;SDS011;8162;47.104;15.432;2024-03-07T03:39:46;9.77;;;7.17;;
16115;SDS011;8162;47.104;15.432;2024-03-07T03:42:47;10.80;;;7.93;;
16115;SDS011;8162;47.104;15.432;2024-03-07T03:45:48;11.30;;;8.30;;
16115;SDS011;8162;47.104;15.432;2024-03-07T03:48:49;11.07;;;7.57;;
16115;SDS011;8162;47.104;15.432;2024-03-07T03:51:50;11.00;;;8.43;;
16115;SDS011;8162;47.104;15.432;2024-03-07T03:54:51;11.40;;;8.13;;
16115;SDS011;8162;47.104;15.432;2024-03-07T03:57:52;9.53;;;7.63;;
16115;SDS011;8162;47.104;15.432;2024-03-07T04:00:53;10.77;;;7.90;;
16115;SDS011;8162;47.104;15.432;2024-03-07T04:03:54;13.70;;;7.80;;
16115;SDS011;8162;47.104;15.432;2024-03-07T04:06:55;11.23;;;8.47;;
16115;SDS011;8162;47.104;15.432;2024-03-07T04:09:57;14.63;;;9.17;;
16115;SDS011;8162;47.104;15.432;2024-03-07T04:12:58;14.73;;;8.60;;
16115;SDS011;8162;47.104;15.432;2024-03-07T04:15:59;11.53;;;8.50;;
16115;SDS011;8162;47.104;15.432;2024-03-07T04:19:00;12.10;;;8.73;;
16115;SDS011;8162;47.104;15.432;2024-03-07T04:22:01;11.53;;;8.30;;
16115;SDS011;8162;47.104;15.432;2024-03-07T04:25:03;17.20;;;9.73;;
16115;SDS011;8162;47.104;15.432;2024-03-07T04:28:04;11.63;;;8.57;;
16115;SDS011;8162;47.104;15.432;2024-03-07T04:31:05;12.57;;;8.37;;
16115;SDS011;8162;47.104;15.432;2024-03-07T04:34:06;10.30;;;8.13;;
16115;SDS011;8162;47.104;15.432;2024-03-07T04:37:07;11.40;;;8.27;;
16115;SDS011;8162;47.104;15.432;2024-03-07T04:40:09;11.40;;;8.07;;
16115;SDS011;8162;47.104;15.432;2024-03-07T04:43:16;11.70;;;7.63;;
16115;SDS011;8162;47.104;15.432;2024-03-07T04:46:17;10.23;;;8.17;;
16115;SDS011;8162;47.104;15.432;2024-03-07T04:49:18;10.73;;;7.60;;
16115;SDS011;8162;47.104;15.432;2024-03-07T04:52:19;12.47;;;7.70;;
16115;SDS011;8162;47.104;15.432;2024-03-07T04:55:20;9.97;;;6.70;;
16115;SDS011;8162;47.104;15.432;2024-03-07T04:58:21;10.57;;;7.90;;
16115;SDS011;8162;47.104;15.432;2024-03-07T05:01:23;10.83;;;7.70;;
16115;SDS011;8162;47.104;15.432;2024-03-07T05:04:25;8.70;;;7.73;;
16115;SDS011;8162;47.104;15.432;2024-03-07T05:07:29;11.00;;;7.63;;
16115;SDS011;8162;47.104;15.432;2024-03-07T05:10:30;10.63;;;7.50;;
16115;SDS011;8162;47.104;15.432;2024-03-07T05:13:31;10.70;;;8.13;;
16115;SDS011;8162;47.104;15.432;2024-03-07T05:16:32;8.27;;;6.63;;
16115;SDS011;8162;47.104;15.432;2024-03-07T05:19:33;9.40;;;7.37;;
16115;SDS011;8162;47.104;15.432;2024-03-07T05:22:34;10.90;;;7.27;;
16115;SDS011;8162;47.104;15.432;2024-03-07T05:25:35;11.83;;;6.83;;
16115;SDS011;8162;47.104;15.432;2024-03-07T05:28:37;9.10;;;6.67;;
16115;SDS011;8162;47.104;15.432;2024-03-07T05:31:38;9.90;;;7.60;;
16115;SDS011;8162;47.104;15.432;2024-03-07T05:34:46;8.80;;;6.83;;
16115;SDS011;8162;47.104;15.432;2024-03-07T05:37:48;10.73;;;7.70;;
16115;SDS011;8162;47.104;15.432;2024-03-07T05:40:50;11.77;;;8.30;;
16115;SDS011;8162;47.104;15.432;2024-03-07T05:43:51;9.80;;;7.27;;
16115;SDS011;8162;47.104;15.432;2024-03-07T05:46:52;10.53;;;7.37;;
16115;SDS011;8162;47.104;15.432;2024-03-07T05:49:53;8.57;;;6.23;;
16115;SDS011;8162;47.104;15.432;2024-03-07T05:52:54;10.93;;;6.73;;
16115;SDS011;8162;47.104;15.432;2024-03-07T05:55:55;14.17;;;7.33;;
16115;SDS011;8162;47.104;15.432;2024-03-07T05:58:56;9.43;;;6.37;;
16115;SDS011;8162;47.104;15.432;2024-03-07T06:01:57;9.67;;;6.20;;
16115;SDS011;8162;47.104;15.432;2024-03-07T06:04:58;8.13;;;5.80;;
16115;SDS011;8162;47.104;15.432;2024-03-07T06:07:59;9.40;;;6.80;;
16115;SDS011;8162;47.104;15.432;2024-03-07T06:11:00;11.40;;;6.33;;
16115;SDS011;8162;47.104;15.432;2024-03-07T06:14:02;10.00;;;6.67;;
16115;SDS011;8162;47.104;15.432;2024-03-07T06:17:03;6.57;;;5.37;;
16115;SDS011;8162;47.104;15.432;2024-03-07T06:20:04;9.57;;;5.77;;
16115;SDS011;8162;47.104;15.432;2024-03-07T06:23:17;6.63;;;5.50;;
16115;SDS011;8162;47.104;15.432;2024-03-07T06:26:18;7.97;;;5.57;;
16115;SDS011;8162;47.104;15.432;2024-03-07T06:29:36;7.90;;;5.23;;
16115;SDS011;8162;47.104;15.432;2024-03-07T06:32:37;7.70;;;5.23;;
16115;SDS011;8162;47.104;15.432;2024-03-07T06:35:39;7.33;;;5.43;;
16115;SDS011;8162;47.104;15.432;2024-03-07T06:38:41;6.77;;;5.10;;
16115;SDS011;8162;47.104;15.432;2024-03-07T06:41:42;6.00;;;4.30;;
16115;SDS011;8162;47.104;15.432;2024-03-07T06:44:45;5.17;;;4.13;;
16115;SDS011;8162;47.104;15.432;2024-03-07T06:47:46;5.20;;;3.67;;
16115;SDS011;8162;47.104;15.432;2024-03-07T06:50:47;4.67;;;3.53;;
16115;SDS011;8162;47.104;15.432;2024-03-07T06:53:48;4.10;;;3.17;;
16115;SDS011;8162;47.104;15.432;2024-03-07T06:56:50;4.00;;;3.30;;
16115;SDS011;8162;47.104;15.432;2024-03-07T06:59:51;3.73;;;3.30;;
16115;SDS011;8162;47.104;15.432;2024-03-07T07:02:52;4.20;;;3.50;;
16115;SDS011;8162;47.104;15.432;2024-03-07T07:05:54;3.10;;;2.80;;
16115;SDS011;8162;47.104;15.432;2024-03-07T07:08:55;4.67;;;2.70;;
16115;SDS011;8162;47.104;15.432;2024-03-07T07:11:58;2.93;;;2.60;;
16115;SDS011;8162;47.104;15.432;2024-03-07T07:15:02;3.03;;;2.70;;
16115;SDS011;8162;47.104;15.432;2024-03-07T07:18:04;3.30;;;3.00;;
16115;SDS011;8162;47.104;15.432;2024-03-07T07:21:07;3.57;;;3.00;;
16115;SDS011;8162;47.104;15.432;2024-03-07T07:24:10;3.47;;;3.17;;
16115;SDS011;8162;47.104;15.432;2024-03-07T07:27:12;3.20;;;2.90;;
16115;SDS011;8162;47.104;15.432;2024-03-07T07:30:14;2.93;;;2.40;;
16115;SDS011;8162;47.104;15.432;2024-03-07T07:33:15;3.20;;;2.30;;
16115;SDS011;8162;47.104;15.432;2024-03-07T07:36:16;2.80;;;2.27;;
16115;SDS011;8162;47.104;15.432;2024-03-07T07:39:18;2.47;;;2.27;;
16115;SDS011;8162;47.104;15.432;2024-03-07T07:42:19;2.93;;;2.23;;
16115;SDS011;8162;47.104;15.432;2024-03-07T07:45:21;2.73;;;2.47;;
16115;SDS011;8162;47.104;15.432;2024-03-07T07:48:22;2.90;;;2.30;;
16115;SDS011;8162;47.104;15.432;2024-03-07T07:51:23;3.43;;;2.40;;
16115;SDS011;8162;47.104;15.432;2024-03-07T07:54:25;2.27;;;2.00;;
16115;SDS011;8162;47.104;15.432;2024-03-07T07:57:26;3.20;;;2.30;;
16115;SDS011;8162;47.104;15.432;2024-03-07T08:00:29;3.20;;;2.47;;
16115;SDS011;8162;47.104;15.432;2024-03-07T08:03:31;2.13;;;1.93;;
16115;SDS011;8162;47.104;15.432;2024-03-07T08:06:33;2.57;;;2.00;;
16115;SDS011;8162;47.104;15.432;2024-03-07T08:09:34;3.63;;;2.30;;
16115;SDS011;8162;47.104;15.432;2024-03-07T08:12:35;2.10;;;1.83;;
16115;SDS011;8162;47.104;15.432;2024-03-07T08:15:37;2.57;;;2.10;;
16115;SDS011;8162;47.104;15.432;2024-03-07T08:18:38;2.30;;;2.10;;
16115;SDS011;8162;47.104;15.432;2024-03-07T08:21:39;2.37;;;1.60;;
16115;SDS011;8162;47.104;15.432;2024-03-07T08:24:40;2.13;;;1.97;;
16115;SDS011;8162;47.104;15.432;2024-03-07T08:27:42;2.10;;;1.90;;
16115;SDS011;8162;47.104;15.432;2024-03-07T08:30:43;2.30;;;1.80;;
16115;SDS011;8162;47.104;15.432;2024-03-07T08:33:44;1.93;;;1.73;;
16115;SDS011;8162;47.104;15.432;2024-03-07T08:36:46;2.27;;;1.80;;
16115;SDS011;8162;47.104;15.432;2024-03-07T08:39:47;2.23;;;1.90;;
16115;SDS011;8162;47.104;15.432;2024-03-07T08:42:49;3.87;;;1.87;;
16115;SDS011;8162;47.104;15.432;2024-03-07T08:45:50;2.37;;;1.90;;
16115;SDS011;8162;47.104;15.432;2024-03-07T08:48:52;2.30;;;2.10;;
16115;SDS011;8162;47.104;15.432;2024-03-07T08:51:53;2.53;;;2.10;;
16115;SDS011;8162;47.104;15.432;2024-03-07T08:54:54;2.50;;;2.07;;
16115;SDS011;8162;47.104;15.432;2024-03-07T08:57:55;2.50;;;1.80;;
16115;SDS011;8162;47.104;15.432;2024-03-07T09:00:56;2.27;;;2.03;;
16115;SDS011;8162;47.104;15.432;2024-03-07T09:03:58;2.97;;;2.03;;
16115;SDS011;8162;47.104;15.432;2024-03-07T09:06:59;3.37;;;1.80;;
16115;SDS011;8162;47.104;15.432;2024-03-07T09:10:00;2.93;;;1.93;;
16115;SDS011;8162;47.104;15.432;2024-03-07T09:13:02;3.10;;;2.10;;
16115;SDS011;8162;47.104;15.432;2024-03-07T09:16:03;1.70;;;1.60;;
16115;SDS011;8162;47.104;15.432;2024-03-07T09:19:05;1.67;;;1.40;;
16115;SDS011;8162;47.104;15.432;2024-03-07T09:22:06;2.30;;;1.80;;
16115;SDS011;8162;47.104;15.432;2024-03-07T09:25:08;2.10;;;1.90;;
16115;SDS011;8162;47.104;15.432;2024-03-07T09:28:10;4.93;;;2.03;;
16115;SDS011;8162;47.104;15.432;2024-03-07T09:31:14;1.83;;;1.67;;
16115;SDS011;8162;47.104;15.432;2024-03-07T09:34:15;2.17;;;1.97;;
16115;SDS011;8162;47.104;15.432;2024-03-07T09:37:16;3.70;;;2.20;;
16115;SDS011;8162;47.104;15.432;2024-03-07T09:40:17;4.20;;;2.57;;
16115;SDS011;8162;47.104;15.432;2024-03-07T09:43:20;7.30;;;5.03;;
16115;SDS011;8162;47.104;15.432;2024-03-07T09:46:22;8.17;;;5.80;;
16115;SDS011;8162;47.104;15.432;2024-03-07T09:49:24;7.77;;;6.63;;
16115;SDS011;8162;47.104;15.432;2024-03-07T09:52:26;7.57;;;6.23;;
16115;SDS011;8162;47.104;15.432;2024-03-07T09:55:28;7.77;;;5.80;;
16115;SDS011;8162;47.104;15.432;2024-03-07T09:58:29;6.83;;;5.37;;
16115;SDS011;8162;47.104;15.432;2024-03-07T10:01:35;6.07;;;5.00;;
16115;SDS011;8162;47.104;15.432;2024-03-07T10:04:37;5.87;;;5.03;;
16115;SDS011;8162;47.104;15.432;2024-03-07T10:07:41;6.13;;;5.03;;
16115;SDS011;8162;47.104;15.432;2024-03-07T10:10:44;9.90;;;5.73;;
16115;SDS011;8162;47.104;15.432;2024-03-07T10:13:47;6.50;;;4.90;;
16115;SDS011;8162;47.104;15.432;2024-03-07T10:16:49;6.43;;;4.73;;
16115;SDS011;8162;47.104;15.432;2024-03-07T10:19:50;8.50;;;4.53;;
16115;SDS011;8162;47.104;15.432;2024-03-07T10:22:53;6.23;;;4.83;;
16115;SDS011;8162;47.104;15.432;2024-03-07T10:25:55;4.93;;;4.33;;
16115;SDS011;8162;47.104;15.432;2024-03-07T10:28:57;4.00;;;3.53;;
16115;SDS011;8162;47.104;15.432;2024-03-07T10:31:58;6.57;;;4.10;;
16115;SDS011;8162;47.104;15.432;2024-03-07T10:34:59;4.67;;;3.47;;
16115;SDS011;8162;47.104;15.432;2024-03-07T10:38:00;4.33;;;3.93;;
16115;SDS011;8162;47.104;15.432;2024-03-07T10:41:06;4.77;;;4.00;;
16115;SDS011;8162;47.104;15.432;2024-03-07T10:44:08;4.63;;;4.10;;
16115;SDS011;8162;47.104;15.432;2024-03-07T10:47:15;3.70;;;3.00;;
16115;SDS011;8162;47.104;15.432;2024-03-07T10:50:19;3.47;;;2.50;;
16115;SDS011;8162;47.104;15.432;2024-03-07T10:59:27;3.97;;;2.83;;
16115;SDS011;8162;47.104;15.432;2024-03-07T11:02:41;2.97;;;2.67;;
16115;SDS011;8162;47.104;15.432;2024-03-07T11:05:45;4.57;;;3.90;;
16115;SDS011;8162;47.104;15.432;2024-03-07T11:08:46;3.23;;;2.90;;
16115;SDS011;8162;47.104;15.432;2024-03-07T11:11:47;3.53;;;2.67;;
16115;SDS011;8162;47.104;15.432;2024-03-07T11:14:48;3.77;;;3.17;;
16115;SDS011;8162;47.104;15.432;2024-03-07T11:17:50;3.37;;;2.90;;
16115;SDS011;8162;47.104;15.432;2024-03-07T11:20:54;3.97;;;3.57;;
16115;SDS011;8162;47.104;15.432;2024-03-07T11:23:57;3.67;;;3.20;;
16115;SDS011;8162;47.104;15.432;2024-03-07T11:26:58;4.87;;;3.40;;
16115;SDS011;8162;47.104;15.432;2024-03-07T11:30:07;3.50;;;3.20;;
16115;SDS011;8162;47.104;15.432;2024-03-07T11:33:08;3.40;;;3.10;;
16115;SDS011;8162;47.104;15.432;2024-03-07T11:36:12;3.70;;;3.33;;
16115;SDS011;8162;47.104;15.432;2024-03-07T11:42:36;4.73;;;4.33;;
16115;SDS011;8162;47.104;15.432;2024-03-07T11:45:37;6.10;;;4.67;;
16115;SDS011;8162;47.104;15.432;2024-03-07T11:48:44;5.23;;;4.43;;
16115;SDS011;8162;47.104;15.432;2024-03-07T11:51:46;4.50;;;3.90;;
16115;SDS011;8162;47.104;15.432;2024-03-07T11:54:48;4.40;;;3.53;;
16115;SDS011;8162;47.104;15.432;2024-03-07T11:57:49;4.77;;;4.27;;
16115;SDS011;8162;47.104;15.432;2024-03-07T12:00:53;5.13;;;4.00;;
16115;SDS011;8162;47.104;15.432;2024-03-07T12:03:54;4.13;;;3.63;;
16115;SDS011;8162;47.104;15.432;2024-03-07T12:06:55;4.97;;;3.87;;
16115;SDS011;8162;47.104;15.432;2024-03-07T12:09:56;5.10;;;3.97;;
16115;SDS011;8162;47.104;15.432;2024-03-07T12:12:57;4.20;;;3.63;;
16115;SDS011;8162;47.104;15.432;2024-03-07T12:15:58;4.73;;;4.23;;
16115;SDS011;8162;47.104;15.432;2024-03-07T12:18:59;4.27;;;3.83;;
16115;SDS011;8162;47.104;15.432;2024-03-07T12:22:03;5.87;;;4.40;;
16115;SDS011;8162;47.104;15.432;2024-03-07T12:25:04;5.37;;;4.37;;
16115;SDS011;8162;47.104;15.432;2024-03-07T12:28:09;5.60;;;4.23;;
16115;SDS011;8162;47.104;15.432;2024-03-07T12:31:11;4.90;;;4.13;;
16115;SDS011;8162;47.104;15.432;2024-03-07T12:34:16;5.30;;;3.83;;
16115;SDS011;8162;47.104;15.432;2024-03-07T12:37:18;4.70;;;4.20;;
16115;SDS011;8162;47.104;15.432;2024-03-07T12:40:26;4.93;;;4.43;;
16115;SDS011;8162;47.104;15.432;2024-03-07T12:43:33;8.07;;;5.10;;
16115;SDS011;8162;47.104;15.432;2024-03-07T12:46:35;4.40;;;4.00;;
16115;SDS011;8162;47.104;15.432;2024-03-07T12:49:36;9.53;;;6.17;;
16115;SDS011;8162;47.104;15.432;2024-03-07T12:52:38;4.93;;;4.37;;
16115;SDS011;8162;47.104;15.432;2024-03-07T12:55:40;4.33;;;3.93;;
16115;SDS011;8162;47.104;15.432;2024-03-07T12:58:41;6.03;;;4.70;;
16115;SDS011;8162;47.104;15.432;2024-03-07T13:01:45;4.47;;;4.03;;
16115;SDS011;8162;47.104;15.432;2024-03-07T13:04:47;5.20;;;3.80;;
16115;SDS011;8162;47.104;15.432;2024-03-07T13:07:51;5.50;;;4.47;;
16115;SDS011;8162;47.104;15.432;2024-03-07T13:10:52;5.37;;;4.60;;
16115;SDS011;8162;47.104;15.432;2024-03-07T13:13:55;4.43;;;3.97;;
16115;SDS011;8162;47.104;15.432;2024-03-07T13:16:57;5.23;;;4.07;;
16115;SDS011;8162;47.104;15.432;2024-03-07T13:20:00;3.47;;;3.17;;
16115;SDS011;8162;47.104;15.432;2024-03-07T13:23:01;5.30;;;3.77;;
16115;SDS011;8162;47.104;15.432;2024-03-07T13:26:03;4.83;;;4.30;;
16115;SDS011;8162;47.104;15.432;2024-03-07T13:29:08;4.87;;;4.13;;
16115;SDS011;8162;47.104;15.432;2024-03-07T13:32:09;5.10;;;3.93;;
16115;SDS011;8162;47.104;15.432;2024-03-07T13:35:15;5.63;;;4.07;;
16115;SDS011;8162;47.104;15.432;2024-03-07T13:38:16;4.60;;;3.70;;
16115;SDS011;8162;47.104;15.432;2024-03-07T13:41:18;4.03;;;3.67;;
16115;SDS011;8162;47.104;15.432;2024-03-07T13:44:19;5.77;;;3.73;;
16115;SDS011;8162;47.104;15.432;2024-03-07T13:47:22;5.83;;;4.10;;
16115;SDS011;8162;47.104;15.432;2024-03-07T13:50:24;4.07;;;3.40;;
16115;SDS011;8162;47.104;15.432;2024-03-07T13:53:26;5.73;;;4.27;;
16115;SDS011;8162;47.104;15.432;2024-03-07T13:56:33;4.00;;;3.60;;
16115;SDS011;8162;47.104;15.432;2024-03-07T13:59:40;4.60;;;3.50;;
16115;SDS011;8162;47.104;15.432;2024-03-07T14:03:00;4.00;;;3.60;;
16115;SDS011;8162;47.104;15.432;2024-03-07T14:06:08;4.33;;;3.10;;
16115;SDS011;8162;47.104;15.432;2024-03-07T14:32:38;6.77;;;4.57;;
16115;SDS011;8162;47.104;15.432;2024-03-07T14:35:58;5.00;;;4.50;;
16115;SDS011;8162;47.104;15.432;2024-03-07T14:39:01;5.63;;;4.70;;
16115;SDS011;8162;47.104;15.432;2024-03-07T14:42:03;5.30;;;4.17;;
16115;SDS011;8162;47.104;15.432;2024-03-07T14:45:15;4.90;;;3.83;;
16115;SDS011;8162;47.104;15.432;2024-03-07T14:48:19;5.33;;;4.77;;
16115;SDS011;8162;47.104;15.432;2024-03-07T14:51:20;5.40;;;4.87;;
16115;SDS011;8162;47.104;15.432;2024-03-07T14:54:21;6.27;;;4.33;;
16115;SDS011;8162;47.104;15.432;2024-03-07T14:57:22;5.77;;;4.50;;
16115;SDS011;8162;47.104;15.432;2024-03-07T15:00:23;4.80;;;4.30;;
16115;SDS011;8162;47.104;15.432;2024-03-07T15:03:27;5.23;;;4.30;;
16115;SDS011;8162;47.104;15.432;2024-03-07T15:06:29;5.87;;;4.60;;
16115;SDS011;8162;47.104;15.432;2024-03-07T15:09:31;4.17;;;3.77;;
16115;SDS011;8162;47.104;15.432;2024-03-07T15:12:34;4.67;;;3.87;;
16115;SDS011;8162;47.104;15.432;2024-03-07T15:15:35;6.07;;;4.80;;
16115;SDS011;8162;47.104;15.432;2024-03-07T15:18:36;4.33;;;3.93;;
16115;SDS011;8162;47.104;15.432;2024-03-07T15:21:37;5.60;;;4.17;;
16115;SDS011;8162;47.104;15.432;2024-03-07T15:24:38;5.60;;;4.30;;
16115;SDS011;8162;47.104;15.432;2024-03-07T15:27:40;6.90;;;4.90;;
16115;SDS011;8162;47.104;15.432;2024-03-07T15:30:41;6.60;;;3.90;;
16115;SDS011;8162;47.104;15.432;2024-03-07T15:33:42;3.80;;;3.40;;
16115;SDS011;8162;47.104;15.432;2024-03-07T15:36:44;6.07;;;4.70;;
16115;SDS011;8162;47.104;15.432;2024-03-07T15:39:46;4.63;;;4.13;;
16115;SDS011;8162;47.104;15.432;2024-03-07T15:42:48;5.13;;;4.13;;
16115;SDS011;8162;47.104;15.432;2024-03-07T15:45:52;5.33;;;3.97;;
16115;SDS011;8162;47.104;15.432;2024-03-07T15:48:54;4.53;;;4.07;;
16115;SDS011;8162;47.104;15.432;2024-03-07T15:51:55;4.73;;;4.23;;
16115;SDS011;8162;47.104;15.432;2024-03-07T15:54:56;6.63;;;4.10;;
16115;SDS011;8162;47.104;15.432;2024-03-07T15:57:59;5.63;;;4.70;;
16115;SDS011;8162;47.104;15.432;2024-03-07T16:01:04;6.63;;;4.70;;
16115;SDS011;8162;47.104;15.432;2024-03-07T16:04:06;5.20;;;4.43;;
16115;SDS011;8162;47.104;15.432;2024-03-07T16:07:07;6.57;;;4.33;;
16115;SDS011;8162;47.104;15.432;2024-03-07T16:10:08;5.57;;;4.60;;
16115;SDS011;8162;47.104;15.432;2024-03-07T16:13:10;4.90;;;4.27;;
16115;SDS011;8162;47.104;15.432;2024-03-07T16:16:14;5.67;;;4.67;;
16115;SDS011;8162;47.104;15.432;2024-03-07T16:19:17;5.13;;;4.10;;
16115;SDS011;8162;47.104;15.432;2024-03-07T16:22:22;6.57;;;4.47;;
16115;SDS011;8162;47.104;15.432;2024-03-07T16:25:23;5.47;;;4.00;;
16115;SDS011;8162;47.104;15.432;2024-03-07T16:28:25;5.30;;;4.70;;
16115;SDS011;8162;47.104;15.432;2024-03-07T16:31:28;4.93;;;4.13;;
16115;SDS011;8162;47.104;15.432;2024-03-07T16:34:29;5.80;;;4.77;;
16115;SDS011;8162;47.104;15.432;2024-03-07T16:37:31;5.97;;;4.50;;
16115;SDS011;8162;47.104;15.432;2024-03-07T16:40:32;4.83;;;4.23;;
16115;SDS011;8162;47.104;15.432;2024-03-07T16:43:33;6.77;;;4.70;;
16115;SDS011;8162;47.104;15.432;2024-03-07T16:46:37;5.93;;;5.07;;
16115;SDS011;8162;47.104;15.432;2024-03-07T16:49:38;5.30;;;4.57;;
16115;SDS011;8162;47.104;15.432;2024-03-07T16:52:43;5.83;;;4.43;;
16115;SDS011;8162;47.104;15.432;2024-03-07T16:55:44;5.93;;;4.20;;
16115;SDS011;8162;47.104;15.432;2024-03-07T16:58:46;4.47;;;3.80;;
16115;SDS011;8162;47.104;15.432;2024-03-07T17:01:48;4.80;;;3.73;;
16115;SDS011;8162;47.104;15.432;2024-03-07T17:04:51;4.80;;;4.10;;
16115;SDS011;8162;47.104;15.432;2024-03-07T17:07:52;5.27;;;4.57;;
16115;SDS011;8162;47.104;15.432;2024-03-07T17:10:53;7.93;;;4.83;;
16115;SDS011;8162;47.104;15.432;2024-03-07T17:13:55;4.73;;;3.97;;
16115;SDS011;8162;47.104;15.432;2024-03-07T17:16:56;5.90;;;4.80;;
16115;SDS011;8162;47.104;15.432;2024-03-07T17:19:57;9.87;;;5.67;;
16115;SDS011;8162;47.104;15.432;2024-03-07T17:22:58;7.33;;;5.40;;
16115;SDS011;8162;47.104;15.432;2024-03-07T17:25:59;7.40;;;5.03;;
16115;SDS011;8162;47.104;15.432;2024-03-07T17:29:00;6.53;;;4.67;;
16115;SDS011;8162;47.104;15.432;2024-03-07T17:32:01;7.43;;;4.90;;
16115;SDS011;8162;47.104;15.432;2024-03-07T17:35:05;6.83;;;5.17;;
16115;SDS011;8162;47.104;15.432;2024-03-07T17:38:11;8.40;;;4.57;;
16115;SDS011;8162;47.104;15.432;2024-03-07T17:41:14;6.63;;;5.00;;
16115;SDS011;8162;47.104;15.432;2024-03-07T17:44:16;9.90;;;4.80;;
16115;SDS011;8162;47.104;15.432;2024-03-07T17:47:17;6.17;;;5.07;;
16115;SDS011;8162;47.104;15.432;2024-03-07T17:50:19;6.67;;;5.17;;
16115;SDS011;8162;47.104;15.432;2024-03-07T17:53:22;5.67;;;4.97;;
16115;SDS011;8162;47.104;15.432;2024-03-07T17:56:26;9.07;;;5.47;;
16115;SDS011;8162;47.104;15.432;2024-03-07T17:59:28;5.37;;;4.73;;
16115;SDS011;8162;47.104;15.432;2024-03-07T18:02:29;7.00;;;5.33;;
16115;SDS011;8162;47.104;15.432;2024-03-07T18:05:30;9.40;;;5.13;;
16115;SDS011;8162;47.104;15.432;2024-03-07T18:08:36;9.23;;;6.17;;
16115;SDS011;8162;47.104;15.432;2024-03-07T18:11:37;9.17;;;6.17;;
16115;SDS011;8162;47.104;15.432;2024-03-07T18:14:38;6.23;;;5.63;;
16115;SDS011;8162;47.104;15.432;2024-03-07T18:17:39;7.93;;;5.90;;
16115;SDS011;8162;47.104;15.432;2024-03-07T18:20:40;8.13;;;6.03;;
16115;SDS011;8162;47.104;15.432;2024-03-07T18:23:42;8.00;;;6.10;;
16115;SDS011;8162;47.104;15.432;2024-03-07T18:26:44;10.17;;;6.17;;
16115;SDS011;8162;47.104;15.432;2024-03-07T18:29:47;9.90;;;6.40;;
16115;SDS011;8162;47.104;15.432;2024-03-07T18:32:48;8.10;;;5.90;;
16115;SDS011;8162;47.104;15.432;2024-03-07T18:35:49;8.67;;;5.90;;
16115;SDS011;8162;47.104;15.432;2024-03-07T18:38:50;7.67;;;5.50;;
16115;SDS011;8162;47.104;15.432;2024-03-07T18:41:51;5.80;;;5.00;;
16115;SDS011;8162;47.104;15.432;2024-03-07T18:44:52;7.10;;;5.37;;